createdAt,value
2022-08-28T11:26:06.033Z,95.10
2022-08-28T11:27:06.015Z,93.60
2022-08-28T11:28:06.015Z,92.10
2022-08-28T11:29:06.021Z,90.40
2022-08-28T11:30:06.210Z,90.11
2022-08-28T11:31:06.134Z,88.99
2022-08-28T11:32:05.939Z,88.31
2022-08-28T11:33:05.982Z,87.78
2022-08-28T11:34:05.914Z,89.14
2022-08-28T11:35:05.904Z,88.79
2022-08-28T11:36:05.886Z,87.82
2022-08-28T11:37:05.886Z,87.59
2022-08-28T11:38:05.851Z,88.31
2022-08-28T11:39:05.854Z,86.80
2022-08-28T11:40:05.897Z,86.51
2022-08-28T11:41:05.825Z,86.32
2022-08-28T11:42:05.801Z,85.35
2022-08-28T11:43:05.869Z,85.15
2022-08-28T11:44:05.786Z,84.56
2022-08-28T11:45:05.775Z,84.89
2022-08-28T11:46:05.817Z,83.59
2022-08-28T11:47:05.749Z,82.42
2022-08-28T11:48:05.730Z,84.01
2022-08-28T11:49:05.723Z,81.43
2022-08-28T11:50:05.710Z,81.09
2022-08-28T11:51:05.712Z,81.30
2022-08-28T11:52:13.710Z,82.28
2022-08-28T11:53:05.783Z,83.80
2022-08-28T11:54:05.663Z,83.60
2022-08-28T11:55:05.649Z,82.34
2022-08-28T11:56:05.642Z,81.93
2022-08-28T11:57:05.620Z,82.71
2022-08-28T11:58:26.610Z,81.35
2022-08-28T11:59:07.945Z,83.06
2022-08-28T12:00:05.595Z,83.00
2022-08-28T12:01:05.591Z,81.04
2022-08-28T12:02:05.585Z,78.83
2022-08-28T12:03:05.559Z,78.19
2022-08-28T12:04:08.323Z,78.23
2022-08-28T12:05:05.527Z,79.20
2022-08-28T12:06:05.553Z,79.06
2022-08-28T12:07:05.502Z,79.30
2022-08-28T12:08:05.493Z,79.10
2022-08-28T12:09:05.478Z,78.94
2022-08-28T12:10:05.478Z,77.35
2022-08-28T12:11:05.472Z,79.61
2022-08-28T12:12:05.457Z,80.87
2022-08-28T12:13:05.442Z,80.68
2022-08-28T12:14:05.425Z,81.02
2022-08-28T12:15:05.412Z,81.66
2022-08-28T12:16:05.501Z,81.33
2022-08-28T12:17:05.388Z,81.47
2022-08-28T12:18:05.385Z,80.69
2022-08-28T12:19:05.377Z,80.83
2022-08-28T12:20:05.359Z,81.82
2022-08-28T12:21:05.367Z,81.51
2022-08-28T12:22:05.336Z,80.83
2022-08-28T12:23:05.325Z,80.32
2022-08-28T12:24:09.874Z,79.51
2022-08-28T12:25:05.302Z,79.51
2022-08-28T12:26:05.305Z,78.46
2022-08-28T12:27:05.291Z,77.97
2022-08-28T12:28:05.269Z,77.27
2022-08-28T12:29:05.257Z,74.87
2022-08-28T12:30:05.256Z,73.68
2022-08-28T12:31:05.332Z,73.74
2022-08-28T12:32:05.226Z,73.80
2022-08-28T12:33:05.284Z,73.37
2022-08-28T12:34:05.203Z,76.48
2022-08-28T12:35:05.192Z,77.10
2022-08-28T12:36:05.203Z,76.20
2022-08-28T12:37:05.187Z,75.85
2022-08-28T12:38:05.159Z,74.35
2022-08-28T12:39:05.149Z,75.85
2022-08-28T12:40:05.198Z,74.91
2022-08-28T12:41:05.151Z,74.76
2022-08-28T12:42:05.125Z,73.94
2022-08-28T12:43:05.117Z,73.80
2022-08-28T12:44:05.098Z,73.60
2022-08-28T12:45:05.085Z,74.51
2022-08-28T12:46:05.189Z,75.23
2022-08-28T12:47:05.063Z,73.54
2022-08-28T12:48:05.068Z,73.99
2022-08-28T12:49:05.044Z,74.06
2022-08-28T12:50:05.036Z,73.32
2022-08-28T12:51:05.048Z,73.65
2022-08-28T12:52:05.027Z,72.67
2022-08-28T12:53:05.015Z,73.29
2022-08-28T12:54:04.999Z,73.13
2022-08-28T12:55:04.994Z,71.86
2022-08-28T12:56:04.995Z,72.28
2022-08-28T12:57:04.973Z,71.95
2022-08-28T12:58:04.964Z,72.31
2022-08-28T12:59:04.957Z,74.06
2022-08-28T13:00:04.945Z,73.61
2022-08-28T13:01:04.965Z,74.01
2022-08-28T13:02:04.963Z,75.21
2022-08-28T13:03:04.906Z,74.88
2022-08-28T13:04:04.906Z,75.85
2022-08-28T13:05:04.885Z,75.45
2022-08-28T13:06:04.888Z,73.44
2022-08-28T13:07:04.876Z,73.79
2022-08-28T13:08:04.858Z,74.29
2022-08-28T13:09:04.849Z,72.02
2022-08-28T13:10:04.837Z,72.60
2022-08-28T13:11:04.853Z,73.02
2022-08-28T13:12:06.916Z,72.86
2022-08-28T13:13:15.329Z,74.10
2022-08-28T13:14:04.877Z,72.17
2022-08-28T13:15:04.792Z,72.71
2022-08-28T13:16:04.802Z,74.88
2022-08-28T13:17:04.774Z,73.88
2022-08-28T13:18:04.772Z,75.45
2022-08-28T13:19:04.758Z,73.15
2022-08-28T13:20:04.745Z,73.45
2022-08-28T13:21:04.758Z,70.65
2022-08-28T13:22:04.725Z,72.21
2022-08-28T13:23:04.717Z,72.88
2022-08-28T13:24:04.708Z,72.43
2022-08-28T13:25:04.696Z,72.94
2022-08-28T13:26:04.702Z,72.76
2022-08-28T13:27:04.678Z,72.80
2022-08-28T13:28:04.683Z,71.82
2022-08-28T13:29:04.672Z,72.96
2022-08-28T13:30:04.664Z,71.57
2022-08-28T13:31:04.697Z,68.80
2022-08-28T13:32:04.637Z,68.45
2022-08-28T13:33:04.634Z,68.42
2022-08-28T13:34:04.618Z,69.26
2022-08-28T13:35:04.610Z,69.94
2022-08-28T13:36:04.617Z,69.61
2022-08-28T13:37:07.420Z,69.71
2022-08-28T13:38:04.588Z,71.20
2022-08-28T13:39:04.583Z,71.75
2022-08-28T13:40:10.777Z,70.65
2022-08-28T13:41:04.657Z,70.95
2022-08-28T13:42:04.556Z,69.85
2022-08-28T13:43:04.540Z,68.19
2022-08-28T13:44:04.530Z,67.61
2022-08-28T13:45:04.528Z,68.09
2022-08-28T13:46:04.562Z,68.97
2022-08-28T13:47:04.515Z,69.59
2022-08-28T13:48:04.499Z,68.35
2022-08-28T13:49:04.500Z,67.15
2022-08-28T13:50:04.489Z,67.60
2022-08-28T13:51:04.980Z,67.74
2022-08-28T13:52:04.547Z,66.76
2022-08-28T13:53:04.470Z,66.86
2022-08-28T13:54:04.463Z,66.93
2022-08-28T13:55:04.456Z,67.90
2022-08-28T13:56:04.450Z,67.64
2022-08-28T13:57:04.429Z,67.51
2022-08-28T13:58:04.421Z,66.24
2022-08-28T13:59:04.415Z,65.69
2022-08-28T14:00:04.407Z,64.65
2022-08-28T14:01:04.468Z,64.84
2022-08-28T14:02:04.438Z,66.83
2022-08-28T14:03:04.385Z,69.09
2022-08-28T14:04:04.387Z,70.36
2022-08-28T14:05:04.369Z,71.26
2022-08-28T14:06:04.375Z,72.27
2022-08-28T14:07:04.365Z,71.33
2022-08-28T14:08:04.346Z,69.32
2022-08-28T14:09:04.349Z,67.99
2022-08-28T14:10:04.333Z,67.90
2022-08-28T14:11:04.347Z,67.12
2022-08-28T14:12:04.328Z,66.24
2022-08-28T14:13:04.311Z,66.93
2022-08-28T14:14:04.312Z,65.95
2022-08-28T14:15:04.308Z,65.33
2022-08-28T14:16:04.369Z,65.07
2022-08-28T14:17:04.324Z,64.58
2022-08-28T14:18:04.282Z,63.41
2022-08-28T14:19:04.270Z,64.58
2022-08-28T14:20:04.262Z,63.41
2022-08-28T14:21:04.265Z,63.77
2022-08-28T14:22:04.256Z,63.44
2022-08-28T14:23:04.239Z,63.57
2022-08-28T14:24:04.231Z,63.96
2022-08-28T14:25:04.224Z,63.57
2022-08-28T14:26:04.231Z,64.51
2022-08-28T14:27:04.215Z,63.64
2022-08-28T14:28:04.218Z,63.96
2022-08-28T14:29:04.211Z,63.64
2022-08-28T14:30:04.196Z,63.34
2022-08-28T14:31:04.203Z,64.22
2022-08-28T14:32:04.323Z,64.55
2022-08-28T14:33:04.177Z,63.87
2022-08-28T14:34:04.180Z,64.42
2022-08-28T14:35:04.179Z,64.58
2022-08-28T14:36:04.170Z,64.26
2022-08-28T14:37:04.168Z,64.55
2022-08-28T14:38:04.158Z,64.84
2022-08-28T14:39:06.299Z,65.36
2022-08-28T14:40:04.187Z,65.33
2022-08-28T14:41:04.142Z,65.14
2022-08-28T14:42:04.131Z,64.00
2022-08-28T14:43:04.129Z,66.21
2022-08-28T14:44:04.111Z,67.96
2022-08-28T14:45:04.108Z,67.60
2022-08-28T14:46:07.239Z,67.57
2022-08-28T14:47:04.107Z,68.22
2022-08-28T14:48:04.094Z,68.35
2022-08-28T14:49:04.096Z,69.96
2022-08-28T14:50:04.151Z,69.96
2022-08-28T14:51:04.089Z,70.20
2022-08-28T14:52:04.078Z,70.00
2022-08-28T14:53:04.072Z,70.04
2022-08-28T14:54:04.058Z,69.36
2022-08-28T14:55:04.055Z,68.62
2022-08-28T14:56:04.067Z,67.57
2022-08-28T14:57:04.044Z,66.96
2022-08-28T14:58:04.045Z,68.32
2022-08-28T14:59:04.033Z,68.51
2022-08-28T15:00:04.025Z,68.48
2022-08-28T15:01:04.089Z,69.61
2022-08-28T15:02:04.025Z,70.10
2022-08-28T15:03:04.019Z,69.90
2022-08-28T15:04:04.038Z,69.80
2022-08-28T15:05:03.999Z,71.42
2022-08-28T15:06:04.012Z,70.16
2022-08-28T15:07:03.986Z,70.97
2022-08-28T15:08:03.979Z,71.78
2022-08-28T15:09:03.985Z,70.39
2022-08-28T15:10:03.970Z,69.94
2022-08-28T15:11:03.973Z,69.91
2022-08-28T15:12:03.967Z,67.93
2022-08-28T15:13:03.949Z,67.02
2022-08-28T15:14:03.944Z,66.50
2022-08-28T15:15:03.948Z,65.49
2022-08-28T15:16:03.989Z,65.95
2022-08-28T15:17:04.008Z,66.27
2022-08-28T15:18:03.920Z,65.56
2022-08-28T15:19:03.927Z,65.82
2022-08-28T15:20:03.917Z,64.71
2022-08-28T15:21:03.927Z,64.51
2022-08-28T15:22:03.898Z,65.14
2022-08-28T15:23:03.895Z,66.56
2022-08-28T15:24:03.889Z,69.06
2022-08-28T15:25:03.894Z,68.67
2022-08-28T15:26:03.899Z,69.35
2022-08-28T15:27:03.872Z,69.71
2022-08-28T15:28:03.864Z,69.67
2022-08-28T15:29:03.869Z,69.96
2022-08-28T15:30:03.851Z,70.32
2022-08-28T15:31:03.863Z,71.29
2022-08-28T15:32:03.926Z,71.33
2022-08-28T15:33:03.841Z,69.87
2022-08-28T15:34:03.830Z,69.71
2022-08-28T15:35:03.816Z,69.45
2022-08-28T15:36:03.810Z,66.60
2022-08-28T15:37:03.830Z,66.83
2022-08-28T15:38:03.806Z,66.99
2022-08-28T15:39:03.800Z,65.50
2022-08-28T15:40:03.841Z,66.17
2022-08-28T15:41:03.832Z,66.99
2022-08-28T15:42:03.783Z,66.63
2022-08-28T15:43:03.770Z,66.63
2022-08-28T15:44:03.765Z,66.14
2022-08-28T15:45:03.764Z,66.66
2022-08-28T15:46:03.771Z,67.54
2022-08-28T15:47:03.753Z,68.38
2022-08-28T15:48:03.749Z,68.90
2022-08-28T15:57:46.575Z,69.29
2022-08-28T15:58:46.557Z,68.32
2022-08-28T15:59:49.682Z,69.96
2022-08-28T16:00:46.586Z,68.74
2022-08-28T16:01:46.586Z,67.80
2022-08-28T16:02:46.530Z,68.02
2022-08-28T16:03:46.529Z,68.74
2022-08-28T16:04:46.527Z,66.05
2022-08-28T16:05:46.516Z,65.26
2022-08-28T16:06:46.523Z,64.81
2022-08-28T16:07:46.512Z,64.97
2022-08-28T16:08:46.503Z,65.56
2022-08-28T16:09:46.494Z,65.53
2022-08-28T16:10:46.486Z,67.02
2022-08-28T16:11:46.504Z,66.60
2022-08-28T16:12:47.962Z,65.98
2022-08-28T16:13:46.468Z,66.69
2022-08-28T16:14:46.463Z,67.47
2022-08-28T16:15:46.458Z,68.25
2022-08-28T16:16:49.213Z,69.35
2022-08-28T16:17:46.446Z,69.87
2022-08-28T16:18:46.451Z,69.48
2022-08-28T16:19:46.433Z,69.22
2022-08-28T16:20:46.428Z,67.67
2022-08-28T16:21:46.433Z,67.60
2022-08-28T16:22:46.415Z,67.96
2022-08-28T16:23:46.409Z,67.80
2022-08-28T16:24:46.410Z,69.70
2022-08-28T16:25:46.398Z,69.18
2022-08-28T16:26:46.397Z,69.86
2022-08-28T16:27:46.384Z,70.00
2022-08-28T16:28:46.379Z,70.45
2022-08-28T16:29:46.382Z,71.12
2022-08-28T16:30:46.367Z,71.03
2022-08-28T16:31:46.454Z,71.70
2022-08-28T16:32:46.903Z,71.42
2022-08-28T16:33:46.367Z,72.16
2022-08-28T16:34:46.343Z,71.89
2022-08-28T16:35:49.230Z,72.47
2022-08-28T16:36:46.347Z,72.99
2022-08-28T16:37:46.331Z,73.09
2022-08-28T16:38:46.350Z,72.77
2022-08-28T16:39:46.319Z,72.18
2022-08-28T16:40:46.309Z,73.67
2022-08-28T16:41:46.318Z,72.61
2022-08-28T16:42:51.734Z,72.80
2022-08-28T16:43:46.288Z,73.25
2022-08-28T16:44:46.269Z,72.92
2022-08-28T16:45:46.270Z,74.08
2022-08-28T16:46:46.312Z,74.57
2022-08-28T16:47:46.260Z,74.51
2022-08-28T16:48:46.233Z,74.41
2022-08-28T16:49:46.237Z,74.60
2022-08-28T16:51:48.923Z,74.76
2022-08-28T16:52:48.908Z,74.08
2022-08-28T16:53:48.892Z,74.28
2022-08-28T16:54:48.948Z,74.92
2022-08-28T16:55:48.884Z,75.21
